Time;durP1;ratioP1;P1;durP2;ratioP2;P2;SDS_P1;SDS_P2;PMS_P1;PMS_P2;Temp;Humidity;BMP_temperature;BMP_pressure;BME280_temperature;BME280_humidity;BME280_pressure;Samples;Min_cycle;Max_cycle;Signal;HPM_P1;HPM_P2
2022/03/14 00:00:10;;;;;;;34.70;18.40;;;;;;;1.26;32.36;101083.38;4990855;28;106104;-82
2022/03/14 00:02:36;;;;;;;35.25;18.02;;;;;;;1.22;32.87;101071.38;4990917;28;106304;-80
2022/03/14 00:05:04;;;;;;;38.30;17.85;;;;;;;1.21;32.28;101071.47;4980671;28;105929;-81
2022/03/14 00:07:30;;;;;;;33.67;17.38;;;;;;;1.18;32.65;101072.47;4991487;28;105829;-80
2022/03/14 00:09:56;;;;;;;30.67;17.13;;;;;;;1.18;32.34;101075.94;5009722;28;106375;-82
2022/03/14 00:12:23;;;;;;;35.88;17.05;;;;;;;1.17;32.20;101070.78;5013714;28;106786;-76
2022/03/14 00:14:56;;;;;;;33.72;18.02;;;;;;;1.14;32.86;101078.84;5015796;28;106298;-77
2022/03/14 00:17:22;;;;;;;36.33;17.25;;;;;;;1.11;32.95;101081.66;5011020;28;106000;-78
2022/03/14 00:19:47;;;;;;;29.77;16.33;;;;;;;1.03;33.38;101081.25;5011342;28;106386;-79
2022/03/14 00:22:18;;;;;;;38.83;17.08;;;;;;;0.96;33.25;101073.69;5011670;28;105803;-76
2022/03/14 00:24:43;;;;;;;31.02;16.35;;;;;;;0.95;33.38;101082.50;5009998;28;106124;-78
2022/03/14 00:27:09;;;;;;;32.90;15.98;;;;;;;0.91;33.19;101080.13;5010838;28;107081;-81
2022/03/14 00:29:34;;;;;;;29.30;14.43;;;;;;;0.83;33.17;101084.03;5010881;28;106271;-81
2022/03/14 00:32:00;;;;;;;35.97;18.52;;;;;;;0.77;33.33;101087.00;5009891;28;106028;-80
2022/03/14 00:34:26;;;;;;;31.67;17.42;;;;;;;0.69;33.51;101086.56;4996893;28;106529;-75
2022/03/14 00:36:51;;;;;;;32.33;17.08;;;;;;;0.62;34.08;101086.06;4992385;28;105948;-75
2022/03/14 00:39:17;;;;;;;38.38;18.13;;;;;;;0.56;34.02;101089.03;4990086;28;108636;-74
2022/03/14 00:41:43;;;;;;;37.88;17.10;;;;;;;0.52;34.22;101095.38;4989929;28;106775;-80
2022/03/14 00:44:16;;;;;;;34.67;17.95;;;;;;;0.46;33.84;101086.03;4990154;28;106138;-74
2022/03/14 00:46:43;;;;;;;30.63;17.00;;;;;;;0.42;34.29;101094.16;4992637;28;106420;-77
2022/03/14 00:49:08;;;;;;;27.40;16.58;;;;;;;0.36;34.10;101090.09;4991344;28;106071;-86
2022/03/14 00:51:34;;;;;;;34.63;18.48;;;;;;;0.32;34.48;101088.56;4990781;28;105982;-82
2022/03/14 00:54:00;;;;;;;36.28;18.55;;;;;;;0.28;34.28;101100.97;4997134;28;106557;-75
2022/03/14 00:56:26;;;;;;;38.28;17.92;;;;;;;0.24;34.96;101102.06;5011142;28;106495;-81
2022/03/14 00:58:52;;;;;;;34.75;16.67;;;;;;;0.19;34.40;101098.84;5009856;28;106449;-77
2022/03/14 01:01:17;;;;;;;35.22;17.52;;;;;;;0.17;34.59;101095.47;5010377;28;105898;-81
2022/03/14 01:03:42;;;;;;;30.92;16.23;;;;;;;0.12;35.05;101106.19;5010654;28;106020;-79
2022/03/14 01:06:07;;;;;;;34.53;17.05;;;;;;;0.08;35.16;101102.06;5010001;28;105961;-82
2022/03/14 01:08:33;;;;;;;29.95;15.98;;;;;;;0.03;35.14;101098.81;5010851;28;106148;-79
2022/03/14 01:10:58;;;;;;;33.83;17.38;;;;;;;0.02;34.88;101096.28;5009401;28;114599;-77
2022/03/14 01:13:24;;;;;;;30.90;15.98;;;;;;;-0.04;34.87;101102.66;5008452;28;107649;-80
2022/03/14 01:15:50;;;;;;;32.15;17.10;;;;;;;-0.08;34.88;101096.75;5010482;28;105980;-77
2022/03/14 01:18:15;;;;;;;26.58;15.50;;;;;;;-0.13;35.79;101109.22;5009708;28;106726;-83
2022/03/14 01:20:41;;;;;;;39.55;17.08;;;;;;;-0.18;35.10;101111.22;5009393;28;114714;-80
2022/03/14 01:23:08;;;;;;;30.27;15.00;;;;;;;-0.23;35.82;101102.78;5009647;28;105718;-82
2022/03/14 01:25:33;;;;;;;33.67;14.77;;;;;;;-0.29;35.51;101108.31;5010374;28;105986;-80
2022/03/14 01:27:58;;;;;;;36.70;16.83;;;;;;;-0.35;36.28;101115.56;5009997;28;106018;-76
2022/03/14 01:30:24;;;;;;;28.35;15.50;;;;;;;-0.39;36.01;101115.78;5009145;28;106033;-77
2022/03/14 01:32:50;;;;;;;31.17;17.30;;;;;;;-0.42;35.90;101106.31;5008933;28;106217;-79
2022/03/14 01:35:19;;;;;;;32.88;16.75;;;;;;;-0.45;35.96;101113.47;5009486;28;106074;-85
2022/03/14 01:37:49;;;;;;;31.20;15.68;;;;;;;-0.49;36.12;101117.16;5009208;28;105901;-76
2022/03/14 01:40:16;;;;;;;34.25;16.52;;;;;;;-0.55;36.90;101105.22;5008621;28;105956;-81
2022/03/14 01:42:44;;;;;;;30.63;15.88;;;;;;;-0.61;36.64;101109.00;5008903;28;105998;-80
2022/03/14 01:45:10;;;;;;;34.78;16.70;;;;;;;-0.65;36.86;101107.47;5009724;28;105870;-78
2022/03/14 01:47:38;;;;;;;34.20;17.33;;;;;;;-0.68;36.96;101112.84;5009413;28;106130;-82
2022/03/14 01:50:05;;;;;;;32.05;15.38;;;;;;;-0.72;37.09;101112.16;5008442;28;107046;-77
2022/03/14 01:52:31;;;;;;;33.30;15.43;;;;;;;-0.75;37.19;101116.66;5008616;28;106054;-80
2022/03/14 01:54:56;;;;;;;40.65;18.05;;;;;;;-0.79;36.83;101118.59;4991844;28;105875;-75
2022/03/14 01:57:22;;;;;;;34.85;17.33;;;;;;;-0.81;37.22;101112.59;4989624;28;105825;-79
2022/03/14 01:59:47;;;;;;;35.13;16.67;;;;;;;-0.81;37.13;101107.34;4988483;28;106216;-78
2022/03/14 02:02:13;;;;;;;34.13;15.60;;;;;;;-0.80;37.37;101114.28;4988605;28;106349;-80
2022/03/14 02:04:38;;;;;;;32.90;16.50;;;;;;;-0.82;36.92;101116.16;4989665;28;105987;-86
2022/03/14 02:07:04;;;;;;;32.67;16.83;;;;;;;-0.83;37.23;101113.56;4989186;28;106220;-74
2022/03/14 02:09:29;;;;;;;31.65;17.73;;;;;;;-0.84;37.60;101112.75;4988117;28;106712;-80
2022/03/14 02:11:55;;;;;;;34.78;17.65;;;;;;;-0.85;37.68;101113.66;4988978;28;106054;-74
2022/03/14 02:14:20;;;;;;;31.90;17.90;;;;;;;-0.84;37.88;101112.75;4990584;28;105812;-79
2022/03/14 02:16:46;;;;;;;36.50;18.15;;;;;;;-0.88;37.41;101109.41;4989281;28;106185;-74
2022/03/14 02:19:11;;;;;;;37.05;18.20;;;;;;;-0.91;38.02;101113.97;4988408;28;105836;-76
2022/03/14 02:21:38;;;;;;;37.88;17.15;;;;;;;-0.95;37.85;101104.56;4987413;28;106036;-76
2022/03/14 02:24:04;;;;;;;35.65;18.52;;;;;;;-0.98;37.85;101112.56;4989163;28;105814;-73
2022/03/14 02:26:29;;;;;;;38.53;17.95;;;;;;;-1.00;37.95;101111.78;4989002;28;105924;-71
2022/03/14 02:28:55;;;;;;;33.67;17.60;;;;;;;-1.03;38.17;101118.84;4988400;28;105953;-73
2022/03/14 02:31:20;;;;;;;31.63;16.92;;;;;;;-1.05;37.78;101118.09;4988683;28;105893;-74
2022/03/14 02:33:45;;;;;;;40.78;19.58;;;;;;;-1.06;38.64;101112.94;4988906;28;106019;-84
2022/03/14 02:36:11;;;;;;;33.75;18.70;;;;;;;-1.09;38.49;101113.06;4988130;28;106316;-72
2022/03/14 02:38:36;;;;;;;33.35;19.00;;;;;;;-1.12;38.75;101114.06;4988078;28;106007;-77
2022/03/14 02:41:01;;;;;;;33.22;16.38;;;;;;;-1.16;39.17;101114.25;4988492;28;106318;-82
2022/03/14 02:43:27;;;;;;;31.98;17.95;;;;;;;-1.19;38.75;101117.88;4989583;28;106201;-82
2022/03/14 02:45:53;;;;;;;36.75;17.08;;;;;;;-1.21;38.89;101114.50;4988291;28;106274;-76
2022/03/14 02:48:19;;;;;;;37.40;17.70;;;;;;;-1.24;38.74;101117.25;4990693;28;106875;-74
2022/03/14 02:50:48;;;;;;;37.90;17.55;;;;;;;-1.26;39.42;101122.56;4995982;28;105962;-73
2022/03/14 02:53:14;;;;;;;34.60;17.20;;;;;;;-1.31;39.18;101116.69;4991359;28;106468;-73
2022/03/14 02:55:40;;;;;;;35.40;17.08;;;;;;;-1.32;39.29;101120.22;4989014;28;106132;-85
2022/03/14 02:58:06;;;;;;;35.85;18.75;;;;;;;-1.32;39.38;101122.00;4989240;28;109298;-83
2022/03/14 03:00:35;;;;;;;41.63;19.85;;;;;;;-1.34;39.40;101119.41;4988748;28;105997;-81
2022/03/14 03:03:05;;;;;;;36.17;18.17;;;;;;;-1.33;39.90;101120.28;4988811;28;105834;-82
2022/03/14 03:05:31;;;;;;;;;;;;;;;-1.36;39.53;101116.88;4988495;28;106006;-77
2022/03/14 03:08:00;;;;;;;30.98;16.08;;;;;;;-1.38;39.55;101121.34;4988552;28;106189;-87
2022/03/14 03:10:28;;;;;;;32.35;17.92;;;;;;;-1.39;39.56;101118.81;4987796;28;106384;-80
2022/03/14 03:12:53;;;;;;;34.22;18.33;;;;;;;-1.38;39.39;101120.47;4988526;28;105849;-73
2022/03/14 03:15:19;;;;;;;31.48;17.20;;;;;;;-1.38;39.77;101120.47;4987882;28;106411;-73
2022/03/14 03:17:45;;;;;;;30.98;15.80;;;;;;;-1.40;39.59;101131.00;4988350;28;105932;-80
2022/03/14 03:20:12;;;;;;;35.72;16.75;;;;;;;-1.42;39.97;101130.25;4987523;28;106046;-87
2022/03/14 03:22:38;;;;;;;29.55;16.98;;;;;;;-1.41;39.80;101134.56;4991002;28;106433;-76
2022/03/14 03:25:05;;;;;;;31.10;16.90;;;;;;;-1.44;40.08;101134.69;4991434;28;106154;-78
2022/03/14 03:27:32;;;;;;;40.47;18.77;;;;;;;-1.45;40.30;101137.38;4992049;28;105881;-85
2022/03/14 03:29:58;;;;;;;39.90;17.75;;;;;;;-1.49;39.87;101139.28;4991243;28;105978;-79
2022/03/14 03:32:23;;;;;;;30.70;16.75;;;;;;;-1.51;40.23;101143.72;4992085;28;105982;-76
2022/03/14 03:34:49;;;;;;;29.67;16.60;;;;;;;-1.55;40.19;101143.00;4991100;28;106229;-78
2022/03/14 03:37:14;;;;;;;36.53;19.15;;;;;;;-1.56;40.54;101146.56;4991087;28;106110;-80
2022/03/14 03:39:39;;;;;;;35.17;18.13;;;;;;;-1.56;40.30;101151.78;4989221;28;106435;-76
2022/03/14 03:42:05;;;;;;;32.65;17.05;;;;;;;-1.57;40.42;101150.09;4991639;28;105967;-87
2022/03/14 03:44:31;;;;;;;38.55;17.35;;;;;;;-1.58;40.33;101158.00;4992225;28;105952;-78
2022/03/14 03:46:56;;;;;;;42.13;18.40;;;;;;;-1.61;40.78;101155.53;4989327;28;106134;-77
2022/03/14 03:49:21;;;;;;;43.42;18.70;;;;;;;-1.64;41.14;101150.41;4991089;28;105995;-75
2022/03/14 03:51:47;;;;;;;33.35;17.45;;;;;;;-1.67;40.98;101153.16;4991693;28;105983;-83
2022/03/14 03:54:12;;;;;;;34.97;17.92;;;;;;;-1.68;41.24;101151.47;4989474;28;105985;-83
2022/03/14 03:56:38;;;;;;;38.28;19.00;;;;;;;-1.72;41.45;101154.22;4991264;28;120197;-85
2022/03/14 03:59:04;;;;;;;35.17;18.38;;;;;;;-1.73;41.42;101149.06;4990811;28;105980;-78
2022/03/14 04:01:30;;;;;;;40.15;19.38;;;;;;;-1.76;41.14;101150.03;4991595;28;106350;-82
2022/03/14 04:03:58;;;;;;;34.97;18.15;;;;;;;-1.78;41.14;101149.25;4991620;28;106077;-76
2022/03/14 04:06:27;;;;;;;34.70;17.17;;;;;;;-1.77;41.80;101148.34;4991348;28;105872;-78
2022/03/14 04:08:53;;;;;;;39.30;19.13;;;;;;;-1.75;41.50;101156.09;4990797;28;106324;-80
2022/03/14 04:11:19;;;;;;;35.92;17.83;;;;;;;-1.77;41.45;101156.19;4991506;28;105965;-86
2022/03/14 04:13:45;;;;;;;44.25;18.42;;;;;;;-1.81;41.61;101162.44;4990522;28;106201;-82
2022/03/14 04:16:11;;;;;;;37.25;18.77;;;;;;;-1.85;41.80;101158.28;4990558;28;105967;-82
2022/03/14 04:18:37;;;;;;;35.67;17.38;;;;;;;-1.88;42.00;101155.81;4992171;28;106034;-84
2022/03/14 04:21:03;;;;;;;41.22;17.95;;;;;;;-1.87;41.87;101154.91;4991632;28;105886;-75
2022/03/14 04:23:31;;;;;;;36.90;17.80;;;;;;;-1.88;41.78;101156.66;4990511;28;106166;-74
2022/03/14 04:25:57;;;;;;;38.45;19.02;;;;;;;-1.87;41.40;101160.13;4989689;28;105994;-84
2022/03/14 04:28:22;;;;;;;45.30;18.77;;;;;;;-1.89;41.98;101157.59;4989857;28;106339;-74
2022/03/14 04:30:48;;;;;;;37.78;18.23;;;;;;;-1.91;42.34;101162.00;4990153;28;105837;-74
2022/03/14 04:33:13;;;;;;;36.75;17.90;;;;;;;-1.94;42.23;101161.28;4989646;28;106080;-76
2022/03/14 04:35:39;;;;;;;31.38;16.85;;;;;;;-1.96;42.28;101165.75;4989030;28;106200;-78
2022/03/14 04:38:07;;;;;;;34.63;17.92;;;;;;;-1.97;42.00;101166.66;4989738;28;106081;-77
2022/03/14 04:40:33;;;;;;;33.97;17.80;;;;;;;-1.95;42.00;101164.84;4989325;28;105957;-82
2022/03/14 04:43:10;;;;;;;38.83;18.67;;;;;;;-1.96;42.29;101163.13;4990558;28;106093;-83
2022/03/14 04:45:37;;;;;;;36.00;17.25;;;;;;;-1.95;42.29;101170.06;4989847;28;106416;-76
2022/03/14 04:48:05;;;;;;;37.90;18.55;;;;;;;-1.97;42.71;101177.97;4989553;28;105868;-75
2022/03/14 04:50:31;;;;;;;33.22;18.75;;;;;;;-1.98;42.06;101178.00;4990513;28;105923;-76
2022/03/14 04:52:56;;;;;;;30.17;16.98;;;;;;;-1.98;42.57;101188.44;4988295;28;106712;-80
2022/03/14 04:55:22;;;;;;;38.17;18.60;;;;;;;-2.00;42.32;101185.06;4989720;28;110950;-75
2022/03/14 04:57:47;;;;;;;42.80;19.23;;;;;;;-2.01;42.97;101193.81;4989844;28;106348;-75
2022/03/14 05:00:13;;;;;;;35.53;17.75;;;;;;;-2.03;42.48;101204.31;4991050;28;105936;-78
2022/03/14 05:02:38;;;;;;;44.28;19.15;;;;;;;-2.05;43.12;101196.56;4989154;28;106310;-76
2022/03/14 05:05:04;;;;;;;38.47;20.33;;;;;;;-2.05;42.75;101195.69;4989247;28;107762;-78
2022/03/14 05:07:30;;;;;;;40.35;21.88;;;;;;;-2.05;42.27;101200.91;4988811;28;106383;-75
2022/03/14 05:52:40;;;;;;;35.00;18.92;;;;;;;-1.36;40.92;101231.91;4986440;28;106136;-74
2022/03/14 05:55:07;;;;;;;33.80;17.63;;;;;;;-1.15;41.18;101233.63;4983453;28;106043;-74
2022/03/14 05:57:33;;;;;;;40.42;18.88;;;;;;;-0.94;41.39;101232.66;4985815;28;106201;-75
2022/03/14 05:59:59;;;;;;;41.25;21.80;;;;;;;-0.70;41.30;101235.94;4986899;28;106137;-74
2022/03/14 06:02:25;;;;;;;45.65;22.83;;;;;;;-0.44;41.88;101241.66;4986804;28;106228;-77
2022/03/14 06:04:52;;;;;;;39.55;21.65;;;;;;;-0.14;41.47;101245.50;4984124;28;106059;-74
2022/03/14 06:07:19;;;;;;;43.45;21.20;;;;;;;0.16;41.06;101240.50;4984228;28;106168;-79
2022/03/14 06:09:46;;;;;;;39.05;21.08;;;;;;;0.42;41.25;101240.97;4983769;28;105906;-75
2022/03/14 06:12:11;;;;;;;56.67;22.05;;;;;;;0.67;40.79;101251.88;4984435;28;106737;-80
2022/03/14 06:14:37;;;;;;;43.88;22.20;;;;;;;0.91;40.76;101245.44;4985085;28;106325;-80
2022/03/14 06:17:02;;;;;;;51.38;23.30;;;;;;;1.15;40.63;101245.88;4984700;28;105869;-78
2022/03/14 06:19:28;;;;;;;50.05;22.50;;;;;;;1.40;40.37;101240.13;4984433;28;105831;-76
2022/03/14 06:21:53;;;;;;;44.30;22.60;;;;;;;1.62;39.98;101254.69;4983898;28;116250;-74
2022/03/14 06:24:18;;;;;;;51.03;21.70;;;;;;;1.81;39.74;101254.50;4984698;28;106040;-74
2022/03/14 06:26:43;;;;;;;42.42;21.40;;;;;;;1.95;39.36;101253.72;4983240;28;106303;-75
2022/03/14 06:29:09;;;;;;;48.00;20.90;;;;;;;2.14;39.14;101251.69;4984179;28;106339;-74
2022/03/14 06:31:35;;;;;;;44.17;22.75;;;;;;;2.39;39.20;101252.03;4983756;28;106239;-77
2022/03/14 06:34:01;;;;;;;51.17;21.88;;;;;;;2.64;38.84;101244.38;4984229;28;105904;-74
2022/03/14 06:36:27;;;;;;;44.10;20.90;;;;;;;2.88;38.33;101241.16;4983588;28;106327;-75
2022/03/14 06:38:56;;;;;;;43.78;19.85;;;;;;;3.06;38.21;101249.72;4983629;28;106931;-72
2022/03/14 06:41:21;;;;;;;36.58;18.10;;;;;;;3.21;37.91;101248.78;4983915;28;106146;-77
2022/03/14 06:43:47;;;;;;;33.28;14.32;;;;;;;3.39;37.36;101249.38;4983016;28;105962;-83
2022/03/14 06:46:12;;;;;;;28.50;15.45;;;;;;;3.54;37.40;101249.34;4983533;28;111601;-75
2022/03/14 06:48:39;;;;;;;33.35;16.70;;;;;;;3.72;36.71;101263.16;4983408;28;106803;-77
2022/03/14 06:51:05;;;;;;;28.52;16.40;;;;;;;3.86;36.96;101265.72;4982338;28;106178;-78
2022/03/14 06:53:30;;;;;;;34.33;18.48;;;;;;;3.96;36.49;101265.09;4983784;28;106757;-78
2022/03/14 06:55:56;;;;;;;34.30;19.10;;;;;;;4.20;36.47;101262.66;4983759;28;106498;-77
2022/03/14 06:58:22;;;;;;;39.85;16.13;;;;;;;4.45;35.82;101255.72;4981009;28;124135;-80
2022/03/14 07:00:48;;;;;;;33.28;16.85;;;;;;;4.61;35.61;101259.00;4983716;28;105992;-83
2022/03/14 07:03:14;;;;;;;33.60;16.77;;;;;;;4.75;34.96;101264.16;4975470;28;105976;-80
2022/03/14 07:05:40;;;;;;;30.67;15.27;;;;;;;4.83;34.79;101273.38;4969747;28;106262;-77
2022/03/14 07:08:05;;;;;;;31.33;15.25;;;;;;;4.82;34.59;101277.78;4969255;28;106028;-77
2022/03/14 07:10:31;;;;;;;30.23;14.63;;;;;;;4.88;34.47;101273.88;4969506;28;106440;-81
2022/03/14 07:12:56;;;;;;;25.27;13.70;;;;;;;4.96;34.05;101266.28;4970457;28;106018;-74
2022/03/14 07:15:23;;;;;;;20.08;11.27;;;;;;;5.11;33.45;101272.25;4973435;28;109913;-79
2022/03/14 07:17:49;;;;;;;21.05;12.35;;;;;;;5.15;33.22;101275.53;4971181;28;106045;-78
2022/03/14 07:20:18;;;;;;;19.88;11.07;;;;;;;5.25;32.86;101266.84;4970556;28;105926;-77
2022/03/14 07:22:58;;;;;;;25.52;12.55;;;;;;;5.38;32.70;101264.16;4970728;28;105799;-87
2022/03/14 07:25:31;;;;;;;21.60;12.25;;;;;;;5.54;32.51;101265.72;4970223;28;106359;-75
2022/03/14 07:28:02;;;;;;;22.63;12.60;;;;;;;5.67;32.38;101269.16;4969453;28;105995;-75
2022/03/14 07:30:27;;;;;;;30.52;12.50;;;;;;;5.89;32.01;101270.22;4969152;28;105878;-74
2022/03/14 07:32:53;;;;;;;13.73;7.43;;;;;;;6.17;31.63;101270.84;4970512;28;105999;-73
2022/03/14 07:35:19;;;;;;;23.42;11.82;;;;;;;6.29;31.12;101280.53;4969996;28;106175;-71
2022/03/14 07:37:45;;;;;;;20.80;10.73;;;;;;;6.35;31.02;101274.75;4969145;28;105936;-72
2022/03/14 07:40:12;;;;;;;28.70;11.77;;;;;;;6.56;30.56;101274.94;4969428;28;105902;-76
2022/03/14 07:42:43;;;;;;;17.50;9.27;;;;;;;6.72;30.04;101273.75;4970362;28;106094;-78
2022/03/14 07:45:09;;;;;;;;;;;;;;;6.98;29.79;101273.53;4970861;28;106154;-76
2022/03/14 07:47:34;;;;;;;12.82;7.82;;;;;;;7.14;29.63;101273.19;4969429;28;106306;-75
2022/03/14 07:50:00;;;;;;;19.20;10.52;;;;;;;7.31;29.45;101269.16;4969679;28;105867;-78
2022/03/14 07:52:25;;;;;;;18.20;10.18;;;;;;;7.54;28.83;101275.28;4969857;28;106222;-80
2022/03/14 07:54:51;;;;;;;19.52;10.40;;;;;;;7.74;28.56;101271.84;4968195;28;106248;-80
2022/03/14 07:57:17;;;;;;;19.17;10.63;;;;;;;8.05;27.70;101279.09;4969520;28;107268;-83
2022/03/14 07:59:46;;;;;;;25.63;11.05;;;;;;;8.36;27.64;101274.72;4969450;28;105952;-79
2022/03/14 08:02:12;;;;;;;17.17;9.77;;;;;;;8.62;26.69;101283.19;4970177;28;105984;-79
2022/03/14 08:04:39;;;;;;;21.15;11.02;;;;;;;8.76;26.68;101284.66;4970742;28;106029;-82
2022/03/14 08:07:04;;;;;;;11.75;7.88;;;;;;;8.74;25.54;101277.78;4969336;28;106047;-78
2022/03/14 08:09:30;;;;;;;21.80;10.30;;;;;;;8.70;25.68;101276.38;4969866;28;105990;-78
2022/03/14 08:11:58;;;;;;;18.88;10.98;;;;;;;8.80;25.64;101270.13;4969654;28;106362;-80
2022/03/14 08:14:24;;;;;;;23.98;10.20;;;;;;;8.89;25.08;101275.63;4969368;28;106457;-82
2022/03/14 08:16:49;;;;;;;17.85;9.85;;;;;;;9.07;25.08;101265.22;4970680;28;107150;-76
2022/03/14 08:19:14;;;;;;;17.70;9.73;;;;;;;9.32;25.08;101269.22;4975024;28;105965;-72
2022/03/14 08:21:40;;;;;;;17.58;10.00;;;;;;;9.85;25.99;101269.88;4969453;28;106184;-71
2022/03/14 08:24:06;;;;;;;16.35;9.93;;;;;;;10.21;25.76;101275.47;4969128;28;105892;-72
2022/03/14 08:26:33;;;;;;;18.77;11.23;;;;;;;10.36;25.56;101283.91;4969653;28;105953;-80
2022/03/14 08:28:59;;;;;;;17.23;9.88;;;;;;;10.74;25.49;101269.66;4969031;28;106498;-79
2022/03/14 08:31:24;;;;;;;14.50;10.00;;;;;;;11.12;24.85;101270.50;4970492;28;105863;-79
2022/03/14 08:33:50;;;;;;;16.48;9.18;;;;;;;11.50;24.40;101279.28;4968283;28;106353;-79
2022/03/14 08:36:20;;;;;;;19.80;10.25;;;;;;;11.75;23.58;101273.38;4969551;28;105695;-79
2022/03/14 08:38:46;;;;;;;17.52;10.43;;;;;;;14.10;22.18;101263.44;4968015;28;106076;-77
2022/03/14 08:41:15;;;;;;;18.45;11.05;;;;;;;17.26;20.35;101260.38;4969100;28;106893;-80
2022/03/14 08:43:41;;;;;;;17.25;10.88;;;;;;;20.35;17.58;101253.09;4968841;28;106136;-81
2022/03/14 08:46:06;;;;;;;19.52;10.27;;;;;;;22.89;15.32;101259.00;4968790;28;106721;-83
2022/03/14 08:48:32;;;;;;;17.20;10.80;;;;;;;24.58;14.02;101244.63;4968987;28;106396;-81
2022/03/14 08:50:57;;;;;;;16.85;9.55;;;;;;;25.81;13.06;101257.22;4969213;28;106261;-82
2022/03/14 08:53:22;;;;;;;14.07;9.05;;;;;;;26.18;12.15;101262.22;4969991;28;106209;-80
2022/03/14 08:55:47;;;;;;;17.45;9.68;;;;;;;26.00;11.80;101249.63;4968475;28;121251;-79
2022/03/14 08:58:13;;;;;;;11.35;7.50;;;;;;;26.33;10.72;101251.50;4969390;28;106302;-79
2022/03/14 09:00:39;;;;;;;15.40;8.73;;;;;;;26.51;10.67;101255.88;4970186;28;105976;-79
2022/03/14 09:03:04;;;;;;;15.20;7.38;;;;;;;26.79;10.73;101261.47;4969730;28;106457;-78
2022/03/14 09:05:29;;;;;;;14.20;8.23;;;;;;;26.98;10.43;101256.53;4969708;28;105949;-85
2022/03/14 09:07:56;;;;;;;14.57;9.05;;;;;;;27.26;10.37;101255.50;4969657;28;108396;-84
2022/03/14 09:10:21;;;;;;;16.83;9.88;;;;;;;28.08;10.14;101257.44;4969965;28;105852;-86
2022/03/14 09:12:49;;;;;;;19.20;9.40;;;;;;;29.14;9.53;101263.78;4968927;28;105972;-84
2022/03/14 09:15:15;;;;;;;14.52;9.20;;;;;;;30.08;9.31;101251.06;4968843;28;106008;-84
2022/03/14 09:17:57;;;;;;;12.35;8.60;;;;;;;30.38;8.54;101256.50;4968471;28;106357;-82
2022/03/14 09:20:24;;;;;;;13.00;8.55;;;;;;;30.16;8.57;101261.50;4969469;28;105728;-80
2022/03/14 09:22:50;;;;;;;15.30;8.75;;;;;;;30.16;8.54;101261.50;4968577;28;106211;-83
2022/03/14 09:25:17;;;;;;;14.30;8.02;;;;;;;29.88;7.98;101255.44;4971954;28;105974;-85
2022/03/14 09:27:43;;;;;;;16.27;8.60;;;;;;;30.18;7.74;101251.03;4969154;28;106619;-76
2022/03/14 09:30:09;;;;;;;12.80;7.70;;;;;;;30.22;7.48;101260.38;4970161;28;106220;-81
2022/03/14 09:32:34;;;;;;;9.60;7.35;;;;;;;30.48;7.46;101263.09;4969619;28;106256;-78
2022/03/14 09:35:00;;;;;;;11.50;7.55;;;;;;;31.31;7.56;101247.94;4969726;28;106016;-86
2022/03/14 09:37:28;;;;;;;9.48;6.22;;;;;;;31.31;6.95;101247.94;4968489;28;106099;-81
2022/03/14 09:39:54;;;;;;;10.40;6.97;;;;;;;31.18;6.91;101232.88;4969308;28;106069;-82
2022/03/14 09:42:21;;;;;;;11.13;7.13;;;;;;;31.31;6.60;101239.69;4969147;28;106121;-83
2022/03/14 09:44:53;;;;;;;11.27;7.07;;;;;;;32.22;6.45;101247.53;4973035;28;107086;-84
2022/03/14 09:47:19;;;;;;;10.43;6.63;;;;;;;32.68;6.13;101235.19;4973359;28;106001;-82
2022/03/14 09:49:47;;;;;;;10.43;7.40;;;;;;;32.64;6.16;101231.34;4969692;28;106045;-80
2022/03/14 09:52:15;;;;;;;9.27;6.90;;;;;;;32.52;6.08;101239.22;4967854;28;106288;-89
2022/03/14 09:54:40;;;;;;;11.65;6.82;;;;;;;32.21;6.05;101245.88;4968372;28;106087;-77
2022/03/14 09:57:06;;;;;;;15.40;7.47;;;;;;;32.75;6.11;101239.53;4968290;28;105991;-75
2022/03/14 09:59:32;;;;;;;13.15;7.68;;;;;;;33.73;5.66;101234.25;4969583;28;106212;-88
2022/03/14 10:01:57;;;;;;;10.18;7.63;;;;;;;33.78;5.31;101232.56;4968251;28;106242;-74
2022/03/14 10:04:23;;;;;;;10.65;7.55;;;;;;;34.31;5.65;101240.50;4967544;28;106821;-77
2022/03/14 10:06:49;;;;;;;17.90;7.13;;;;;;;33.27;5.28;101237.75;4967751;28;106169;-81
2022/03/14 10:09:15;;;;;;;10.15;4.95;;;;;;;32.25;5.49;101245.31;4968481;28;106116;-85
2022/03/14 10:11:41;;;;;;;9.60;7.25;;;;;;;32.01;5.94;101222.09;4967671;28;105925;-81
2022/03/14 10:14:10;;;;;;;15.38;8.30;;;;;;;32.87;5.69;101237.19;4967379;28;106020;-79
2022/03/14 10:16:36;;;;;;;10.30;7.07;;;;;;;32.72;5.44;101222.47;4972061;28;106396;-78
2022/03/14 10:19:02;;;;;;;9.20;7.18;;;;;;;32.75;5.48;101228.50;4972082;28;105875;-76
2022/03/14 10:21:35;;;;;;;11.55;7.47;;;;;;;32.76;5.47;101219.94;4968497;28;106203;-76
2022/03/14 10:24:04;;;;;;;17.90;8.00;;;;;;;32.85;5.78;101223.69;4968198;28;105915;-78
2022/03/14 10:26:33;;;;;;;9.27;5.45;;;;;;;32.75;5.41;101231.28;4967249;28;106145;-82
2022/03/14 10:29:00;;;;;;;14.53;7.17;;;;;;;32.79;5.29;101224.03;4967927;28;106129;-76
2022/03/14 10:31:35;;;;;;;11.98;6.90;;;;;;;33.57;5.04;101239.25;4967376;28;106014;-82
2022/03/14 10:34:08;;;;;;;14.20;7.15;;;;;;;33.83;5.18;101226.97;4967536;28;106450;-84
2022/03/14 10:36:57;;;;;;;13.48;6.93;;;;;;;34.52;4.82;101235.38;4967830;28;106354;-84
2022/03/14 10:39:22;;;;;;;8.98;6.13;;;;;;;34.79;4.79;101230.97;4972012;28;106059;-79
2022/03/14 10:42:03;;;;;;;23.80;8.10;;;;;;;34.77;4.58;101233.22;4972010;28;106319;-77
2022/03/14 10:44:29;;;;;;;13.30;7.18;;;;;;;34.50;4.73;101228.50;4969850;28;107948;-75
2022/03/14 10:47:01;;;;;;;10.70;6.90;;;;;;;34.72;4.58;101231.38;4970571;28;105886;-77
2022/03/14 10:49:29;;;;;;;13.02;6.90;;;;;;;34.69;4.50;101223.72;4971733;28;106216;-80
2022/03/14 10:51:55;;;;;;;8.05;6.03;;;;;;;34.94;4.14;101234.53;4960658;28;106333;-82
2022/03/14 10:54:21;;;;;;;12.15;6.57;;;;;;;34.94;4.28;101227.09;4963103;28;106153;-83
2022/03/14 10:57:06;;;;;;;16.17;6.13;;;;;;;34.34;4.24;101226.06;4961689;28;106061;-80
2022/03/14 10:59:53;;;;;;;20.83;7.68;;;;;;;33.98;4.78;101220.34;4960539;28;106496;-81
2022/03/14 11:02:20;;;;;;;10.05;7.70;;;;;;;34.50;4.43;101220.22;4960630;28;106236;-77
2022/03/14 11:04:50;;;;;;;13.02;7.32;;;;;;;35.08;4.46;101208.47;4957499;28;106224;-77
2022/03/14 11:07:18;;;;;;;11.48;6.63;;;;;;;35.58;4.11;101206.75;4960083;28;105914;-79
2022/03/14 11:09:47;;;;;;;10.80;6.70;;;;;;;35.20;4.02;101210.69;4971982;28;105832;-78
2022/03/14 11:12:18;;;;;;;13.45;6.70;;;;;;;35.62;3.98;101218.84;4971383;28;106329;-76
2022/03/14 11:14:53;;;;;;;8.90;6.15;;;;;;;35.57;4.22;101238.41;4970735;28;105813;-79
2022/03/14 11:17:27;;;;;;;9.45;6.10;;;;;;;35.97;3.92;101221.88;4969435;28;106664;-79
2022/03/14 11:19:53;;;;;;;8.45;6.25;;;;;;;36.42;3.84;101216.22;4971500;28;106287;-81
2022/03/14 11:22:20;;;;;;;9.18;6.50;;;;;;;36.84;3.76;101217.81;4969094;28;106303;-76
2022/03/14 11:24:54;;;;;;;7.88;5.75;;;;;;;36.55;3.58;101203.38;4969971;28;106680;-78
2022/03/14 11:27:29;;;;;;;10.00;6.55;;;;;;;36.04;3.62;101202.81;4970030;28;106054;-79
2022/03/14 11:30:01;;;;;;;8.38;6.03;;;;;;;35.39;3.88;101198.63;4970329;28;106020;-76
2022/03/14 11:32:27;;;;;;;9.13;5.90;;;;;;;35.31;4.15;101229.81;4970175;28;105899;-81
2022/03/14 11:34:52;;;;;;;8.85;6.40;;;;;;;35.39;3.86;101207.78;4969931;28;106041;-79
2022/03/14 11:37:18;;;;;;;8.60;6.40;;;;;;;35.65;3.95;101207.16;4968857;28;106022;-76
2022/03/14 11:39:45;;;;;;;9.18;6.72;;;;;;;36.01;3.99;101203.47;4970619;28;106071;-75
2022/03/14 11:42:12;;;;;;;7.65;6.43;;;;;;;36.77;3.33;101209.91;4969965;28;106210;-77
2022/03/14 11:44:39;;;;;;;8.98;6.00;;;;;;;37.09;3.42;101191.22;4968957;28;106200;-78
2022/03/14 11:47:08;;;;;;;14.50;6.80;;;;;;;37.72;3.58;101194.41;4969285;28;106133;-76
2022/03/14 11:49:34;;;;;;;10.70;6.00;;;;;;;36.92;3.55;101194.78;4970108;28;106021;-74